Time;durP1;ratioP1;P1;durP2;ratioP2;P2;SDS_P1;SDS_P2;PMS_P1;PMS_P2;Temp;Humidity;BMP_temperature;BMP_pressure;BME280_temperature;BME280_humidity;BME280_pressure;Samples;Min_cycle;Max_cycle;Signal;HPM_P1;HPM_P2
2021/07/23 00:01:47;;;;;;;15.13;6.25;;;;;;;14.05;61.91;99036.47;5110666;28;20040;-70
2021/07/23 00:04:13;;;;;;;13.07;6.75;;;;;;;14.03;61.89;99030.50;5111003;28;20134;-70
2021/07/23 00:06:39;;;;;;;17.92;6.30;;;;;;;13.99;62.08;99036.25;5111574;28;20051;-68
2021/07/23 00:09:05;;;;;;;16.25;6.35;;;;;;;13.97;62.46;99041.75;5111437;28;20042;-69
2021/07/23 00:11:31;;;;;;;14.05;6.15;;;;;;;13.98;62.30;99034.59;5111295;28;20509;-69
2021/07/23 00:13:56;;;;;;;20.70;7.40;;;;;;;13.96;62.41;99041.91;5111318;28;20071;-68
2021/07/23 00:16:22;;;;;;;19.08;7.95;;;;;;;13.95;62.34;99038.41;5110987;28;20035;-72
2021/07/23 00:18:48;;;;;;;20.77;7.88;;;;;;;13.90;62.88;99038.03;5111891;28;20469;-71
2021/07/23 00:21:14;;;;;;;20.75;7.65;;;;;;;13.92;62.58;99044.03;5115394;28;20043;-69
2021/07/23 00:23:39;;;;;;;17.42;7.40;;;;;;;13.90;63.08;99040.69;5115097;28;20040;-69
2021/07/23 00:26:18;;;;;;;15.82;7.28;;;;;;;13.86;63.04;99039.34;5115334;28;20043;-70
2021/07/23 00:28:44;;;;;;;17.55;6.72;;;;;;;13.82;63.40;99040.63;5114902;28;20638;-70
2021/07/23 00:31:10;;;;;;;16.15;6.45;;;;;;;13.79;63.82;99048.94;5096622;28;20050;-69
2021/07/23 00:33:36;;;;;;;16.42;6.05;;;;;;;13.72;63.81;99044.22;5114964;28;20134;-69
2021/07/23 00:36:01;;;;;;;13.18;6.45;;;;;;;13.68;64.53;99040.22;5097255;28;20059;-70
2021/07/23 00:38:27;;;;;;;15.13;6.05;;;;;;;13.63;64.33;99037.16;5096742;28;20040;-70
2021/07/23 00:40:53;;;;;;;16.02;6.25;;;;;;;13.58;64.50;99039.44;5096660;28;20070;-69
2021/07/23 00:43:19;;;;;;;12.25;6.63;;;;;;;13.56;64.90;99041.44;5096905;28;20134;-69
2021/07/23 00:45:45;;;;;;;12.30;6.82;;;;;;;13.50;65.21;99042.06;5096403;28;20035;-68
2021/07/23 00:48:13;;;;;;;10.10;6.05;;;;;;;13.46;65.82;99036.22;5079957;28;20043;-69
2021/07/23 00:50:40;;;;;;;16.13;6.22;;;;;;;13.42;66.02;99035.69;5096219;28;20044;-70
2021/07/23 00:53:08;;;;;;;19.48;6.75;;;;;;;13.45;65.88;99041.69;5096709;28;20130;-69
2021/07/23 00:55:37;;;;;;;14.55;5.90;;;;;;;13.45;65.49;99036.38;5096606;28;20051;-69
2021/07/23 00:58:04;;;;;;;11.00;5.35;;;;;;;13.42;65.82;99033.03;5114649;28;20051;-70
2021/07/23 01:00:32;;;;;;;13.13;5.22;;;;;;;13.42;65.94;99029.50;5096675;28;20051;-69
2021/07/23 01:03:01;;;;;;;11.65;5.35;;;;;;;13.40;65.61;99032.34;5096250;28;20043;-70
2021/07/23 01:05:28;;;;;;;13.82;5.00;;;;;;;13.40;66.06;99027.00;5096619;28;20130;-71
2021/07/23 01:07:55;;;;;;;8.13;5.10;;;;;;;13.35;66.29;99026.63;5096004;28;20047;-71
2021/07/23 01:10:21;;;;;;;8.90;4.63;;;;;;;13.36;66.37;99038.91;5114117;28;20070;-69
2021/07/23 01:13:04;;;;;;;11.10;4.90;;;;;;;13.29;66.34;99029.88;5081916;28;20051;-70
2021/07/23 01:15:31;;;;;;;12.55;4.55;;;;;;;13.23;66.48;99034.00;5096198;28;20545;-69
2021/07/23 01:17:57;;;;;;;11.75;4.50;;;;;;;13.19;66.21;99029.13;5114245;28;20051;-72
2021/07/23 01:20:27;;;;;;;10.40;4.68;;;;;;;13.17;66.63;99025.78;5114230;28;20039;-69
2021/07/23 01:23:00;;;;;;;11.23;5.20;;;;;;;13.13;66.71;99024.41;5114171;28;20047;-71
2021/07/23 01:25:27;;;;;;;10.52;4.55;;;;;;;13.09;67.20;99019.41;5096199;28;20165;-70
2021/07/23 01:27:54;;;;;;;9.90;4.78;;;;;;;13.09;66.96;99021.22;5096012;28;20059;-69
2021/07/23 01:30:40;;;;;;;7.35;4.72;;;;;;;13.06;67.06;99010.91;5113407;28;20043;-71
2021/07/23 01:33:20;;;;;;;9.82;5.07;;;;;;;13.03;67.11;99001.41;5095878;28;20050;-69
2021/07/23 01:35:46;;;;;;;11.15;5.30;;;;;;;13.02;67.39;99002.44;5113664;28;20046;-69
2021/07/23 01:38:16;;;;;;;13.65;5.03;;;;;;;13.01;67.40;99010.50;5095654;28;20107;-69
2021/07/23 01:40:43;;;;;;;12.50;4.55;;;;;;;13.01;67.69;99005.22;5095553;28;20085;-69
2021/07/23 01:43:10;;;;;;;11.77;4.35;;;;;;;13.00;67.48;99004.38;5095955;28;20031;-71
2021/07/23 01:45:36;;;;;;;9.48;4.10;;;;;;;12.96;67.44;99011.00;5114022;28;20092;-67
2021/07/23 01:48:22;;;;;;;7.55;3.92;;;;;;;13.00;67.66;99004.38;5106049;28;20051;-72
2021/07/23 01:50:49;;;;;;;9.40;4.38;;;;;;;13.01;67.30;99000.75;5095271;28;20526;-72
2021/07/23 01:53:15;;;;;;;12.93;4.43;;;;;;;12.97;67.95;99003.84;5095305;28;20051;-72
2021/07/23 01:56:01;;;;;;;10.52;4.70;;;;;;;12.92;68.13;99001.63;5113012;28;20050;-70
2021/07/23 01:58:31;;;;;;;6.75;4.22;;;;;;;12.93;67.55;98993.53;5095369;28;20605;-72
2021/07/23 02:01:00;;;;;;;7.47;4.50;;;;;;;12.92;67.56;98996.31;5093607;28;20045;-69
2021/07/23 02:03:31;;;;;;;11.43;4.50;;;;;;;12.93;67.78;98998.00;5094883;28;20130;-69
2021/07/23 02:05:57;;;;;;;11.13;4.00;;;;;;;12.90;68.10;98993.81;5112514;28;20135;-69
2021/07/23 02:08:26;;;;;;;11.18;4.20;;;;;;;12.88;68.31;98987.00;5094984;28;20514;-69
2021/07/23 02:10:52;;;;;;;11.77;4.40;;;;;;;12.86;68.50;98986.31;5112843;28;20184;-69
2021/07/23 02:13:18;;;;;;;10.48;5.10;;;;;;;12.88;68.19;98985.16;5094561;28;20088;-69
2021/07/23 02:15:45;;;;;;;11.50;4.55;;;;;;;12.87;68.16;98987.97;5094910;28;20130;-69
2021/07/23 02:18:18;;;;;;;9.43;4.50;;;;;;;12.88;68.14;98979.03;5095043;28;20036;-70
2021/07/23 02:20:46;;;;;;;;;;;;;;;12.91;68.68;98981.38;5095226;28;20457;-69
2021/07/23 02:23:12;;;;;;;12.95;4.75;;;;;;;12.88;68.22;98979.88;5094881;28;20011;-70
2021/07/23 02:25:43;;;;;;;9.98;4.20;;;;;;;12.87;68.54;98983.53;5094490;28;20116;-69
2021/07/23 02:28:11;;;;;;;8.63;4.55;;;;;;;12.97;68.47;98978.13;5094787;28;20050;-69
2021/07/23 02:30:41;;;;;;;9.50;4.20;;;;;;;13.05;68.16;98980.03;5094820;28;20081;-68
2021/07/23 02:33:22;;;;;;;12.45;4.40;;;;;;;13.05;68.22;98980.88;5113169;28;20130;-70
2021/07/23 02:35:50;;;;;;;9.88;4.35;;;;;;;13.04;67.84;98981.03;5094663;28;20039;-69
2021/07/23 02:38:17;;;;;;;10.00;4.68;;;;;;;13.06;67.89;98977.22;5094398;28;20126;-69
2021/07/23 02:40:48;;;;;;;7.70;4.28;;;;;;;13.13;67.94;98976.63;5094529;28;20591;-70
2021/07/23 02:43:14;;;;;;;9.45;4.07;;;;;;;13.16;67.56;98974.50;5093718;28;20118;-69
2021/07/23 02:45:42;;;;;;;12.75;4.35;;;;;;;13.20;68.01;98969.72;5094325;28;20048;-68
2021/07/23 02:48:08;;;;;;;10.60;4.10;;;;;;;13.19;67.42;98973.38;5075579;28;20059;-70
2021/07/23 02:50:36;;;;;;;13.43;4.32;;;;;;;13.23;67.53;98972.06;5075168;28;20515;-69
2021/07/23 02:53:03;;;;;;;12.07;5.13;;;;;;;13.27;67.69;98984.03;5091884;28;20130;-69
2021/07/23 02:55:30;;;;;;;12.48;4.50;;;;;;;13.29;67.90;98976.75;5074209;28;20130;-69
2021/07/23 02:57:56;;;;;;;15.75;5.00;;;;;;;13.32;68.20;98979.13;5091823;28;20131;-70
2021/07/23 03:00:26;;;;;;;14.93;4.38;;;;;;;13.41;67.75;98974.75;5092718;28;20044;-69
2021/07/23 03:02:54;;;;;;;12.77;4.10;;;;;;;13.50;67.11;98980.97;5091743;28;20097;-70
2021/07/23 03:05:21;;;;;;;10.27;4.70;;;;;;;13.54;67.35;98974.34;5092208;28;20044;-70
2021/07/23 03:07:53;;;;;;;11.75;4.70;;;;;;;13.61;67.11;98972.72;5091754;28;20505;-69
2021/07/23 03:10:20;;;;;;;16.58;5.40;;;;;;;13.68;67.47;98968.47;5073606;28;20044;-71
2021/07/23 03:12:47;;;;;;;13.27;5.35;;;;;;;13.77;66.86;98965.84;5073946;28;20588;-70
2021/07/23 03:15:13;;;;;;;9.27;4.20;;;;;;;13.85;66.89;98961.41;5107580;28;20044;-71
2021/07/23 03:17:42;;;;;;;10.35;4.25;;;;;;;13.97;66.42;98959.34;5076963;28;20073;-70
2021/07/23 03:20:10;;;;;;;13.82;4.25;;;;;;;14.05;66.11;98955.88;5093926;28;20074;-70
2021/07/23 03:22:38;;;;;;;12.85;4.57;;;;;;;14.15;65.87;98955.75;5112133;28;20043;-72
2021/07/23 03:25:12;;;;;;;9.57;3.97;;;;;;;14.20;65.59;98948.13;5093612;28;20526;-71
2021/07/23 03:28:07;;;;;;;8.68;3.80;;;;;;;14.33;65.24;98945.00;5106866;28;20488;-70
2021/07/23 03:30:49;;;;;;;12.13;3.45;;;;;;;14.45;65.25;98953.53;5093904;28;20043;-70
2021/07/23 03:33:16;;;;;;;11.20;4.35;;;;;;;14.51;65.02;98956.38;5093882;28;20040;-70
2021/07/23 03:35:43;;;;;;;6.95;3.63;;;;;;;14.60;64.94;98959.91;5098627;28;20039;-70
2021/07/23 03:38:12;;;;;;;10.00;3.17;;;;;;;14.71;64.22;98956.13;5083747;28;20458;-70
2021/07/23 03:40:38;;;;;;;9.23;3.50;;;;;;;14.80;63.86;98949.81;5111115;28;20117;-70
2021/07/23 03:43:12;;;;;;;8.20;3.25;;;;;;;14.85;63.59;98936.88;5111491;28;20436;-70
2021/07/23 03:45:49;;;;;;;11.80;5.30;;;;;;;14.95;63.12;98931.38;5086258;28;20051;-71
2021/07/23 03:48:16;;;;;;;7.72;3.03;;;;;;;14.99;62.81;98932.72;5110340;28;20058;-70
2021/07/23 03:50:48;;;;;;;63.40;27.92;;;;;;;15.07;62.28;98931.06;5110681;28;20122;-69
2021/07/23 03:53:16;;;;;;;5.90;3.00;;;;;;;15.14;62.16;98929.38;5095833;28;20045;-71
2021/07/23 03:55:44;;;;;;;8.20;3.50;;;;;;;15.23;61.89;98932.88;5115084;28;20085;-71
2021/07/23 03:58:15;;;;;;;10.40;4.28;;;;;;;15.40;61.52;98933.72;5092802;28;20476;-69
2021/07/23 04:00:42;;;;;;;5.45;2.95;;;;;;;15.55;61.42;98931.19;5102552;28;20036;-69
2021/07/23 04:03:08;;;;;;;12.05;4.97;;;;;;;15.67;60.98;98930.66;5089631;28;20114;-73
2021/07/23 04:05:34;;;;;;;9.80;2.95;;;;;;;15.89;60.29;98928.34;5080280;28;20042;-73
2021/07/23 04:08:04;;;;;;;8.60;3.13;;;;;;;15.98;59.93;98931.81;5115321;28;20086;-72
2021/07/23 04:10:32;;;;;;;6.07;2.80;;;;;;;16.07;59.72;98928.09;5115348;28;20042;-69
2021/07/23 04:12:59;;;;;;;7.25;2.92;;;;;;;16.31;58.89;98918.31;5097238;28;20043;-71
2021/07/23 04:15:27;;;;;;;8.25;2.88;;;;;;;17.90;55.54;98910.56;5097096;28;20048;-75
2021/07/23 04:18:22;;;;;;;9.23;2.92;;;;;;;19.56;50.82;98919.75;5064726;28;20056;-72
2021/07/23 04:21:07;;;;;;;6.95;3.00;;;;;;;20.70;46.88;98912.25;5051681;28;20522;-72
2021/07/23 04:23:36;;;;;;;5.85;2.22;;;;;;;20.16;47.55;98912.09;5034904;28;20052;-71
2021/07/23 04:26:03;;;;;;;5.82;2.40;;;;;;;19.72;48.88;98916.75;5035071;28;20044;-71
2021/07/23 04:28:32;;;;;;;7.53;2.53;;;;;;;19.92;48.72;98915.25;5034955;28;20151;-71
2021/07/23 04:30:59;;;;;;;5.90;2.33;;;;;;;19.62;48.98;98918.16;5051498;28;20052;-71
2021/07/23 04:34:00;;;;;;;6.45;2.60;;;;;;;19.92;48.43;98910.72;4992426;28;20050;-73
2021/07/23 04:36:38;;;;;;;6.20;2.50;;;;;;;20.21;47.44;98908.78;4992396;28;20395;-71
2021/07/23 04:39:30;;;;;;;7.50;2.20;;;;;;;20.63;46.88;98903.34;4977273;28;20061;-73
2021/07/23 04:42:05;;;;;;;6.75;2.50;;;;;;;20.77;46.03;98910.47;4992373;28;20062;-72
2021/07/23 04:44:32;;;;;;;6.45;2.88;;;;;;;20.52;47.02;98912.81;4976390;28;20093;-72
2021/07/23 04:47:00;;;;;;;8.45;2.63;;;;;;;20.19;47.44;98908.97;4992239;28;20046;-70
2021/07/23 04:49:28;;;;;;;11.02;4.22;;;;;;;19.97;48.21;98902.06;4992291;28;20190;-72
2021/07/23 04:51:54;;;;;;;6.32;2.53;;;;;;;19.77;48.72;98900.06;4959870;28;20042;-71
2021/07/23 04:54:23;;;;;;;5.47;2.50;;;;;;;19.72;48.81;98891.78;4986075;28;20130;-72
2021/07/23 04:57:18;;;;;;;7.45;2.47;;;;;;;19.65;49.22;98897.13;4972744;28;20409;-71
2021/07/23 04:59:45;;;;;;;6.75;2.38;;;;;;;19.49;49.48;98897.41;4973387;28;20054;-73
2021/07/23 05:02:11;;;;;;;9.68;2.45;;;;;;;19.46;50.01;98895.94;4973419;28;20050;-73
2021/07/23 05:04:37;;;;;;;5.93;2.40;;;;;;;19.59;49.71;98887.19;4973874;28;20516;-72
2021/07/23 05:07:03;;;;;;;9.10;3.45;;;;;;;19.56;49.88;98888.41;4972681;28;20077;-72
2021/07/23 05:09:29;;;;;;;8.68;2.78;;;;;;;19.61;49.99;98882.41;4992194;28;20051;-75
2021/07/23 05:11:55;;;;;;;8.05;2.70;;;;;;;19.50;50.24;98873.09;5093709;28;20052;-73
2021/07/23 05:14:21;;;;;;;8.18;2.95;;;;;;;19.43;50.22;98885.63;5094113;28;20045;-73
2021/07/23 05:16:47;;;;;;;7.32;2.80;;;;;;;19.32;50.73;98881.63;5093995;28;20048;-75
2021/07/23 05:19:15;;;;;;;7.28;2.45;;;;;;;19.51;50.15;98880.09;5093953;28;20039;-72
2021/07/23 05:21:41;;;;;;;8.30;3.10;;;;;;;19.49;50.50;98876.78;5075890;28;20126;-72
2021/07/23 05:24:07;;;;;;;8.77;3.20;;;;;;;19.54;50.53;98874.34;5075431;28;20044;-70
2021/07/23 05:26:38;;;;;;;7.82;2.58;;;;;;;20.10;49.21;98871.75;5075438;28;20462;-75
2021/07/23 05:29:06;;;;;;;9.32;3.30;;;;;;;21.05;47.23;98866.44;5093826;28;20048;-75
2021/07/23 05:31:31;;;;;;;;;;;;;;;22.43;44.19;98861.97;5076259;28;20040;-76
2021/07/23 05:33:57;;;;;;;6.50;2.72;;;;;;;24.58;39.31;98846.38;5093793;28;20007;-75
2021/07/23 05:36:25;;;;;;;6.97;2.88;;;;;;;24.94;38.01;98850.00;5093904;28;20036;-76
2021/07/23 05:38:51;;;;;;;8.75;2.58;;;;;;;25.47;36.51;98844.75;5093592;28;20443;-72
2021/07/23 05:41:17;;;;;;;12.30;5.70;;;;;;;26.21;35.37;98836.03;5093645;28;20044;-70
2021/07/23 05:43:43;;;;;;;12.27;3.40;;;;;;;25.85;35.82;98838.00;5093782;28;20070;-75
2021/07/23 05:46:09;;;;;;;10.45;3.63;;;;;;;25.54;36.14;98831.94;5093575;28;20032;-73
2021/07/23 05:48:39;;;;;;;11.35;3.50;;;;;;;25.13;36.24;98828.28;5093505;28;20052;-74
2021/07/23 05:51:09;;;;;;;9.77;3.00;;;;;;;24.60;37.10;98832.63;5093132;28;20469;-76
2021/07/23 05:53:35;;;;;;;7.82;2.85;;;;;;;25.31;36.54;98833.56;5093609;28;20050;-76
2021/07/23 05:56:01;;;;;;;9.38;2.97;;;;;;;25.57;35.86;98825.22;5093159;28;20048;-77
2021/07/23 05:58:28;;;;;;;5.30;2.30;;;;;;;25.34;36.03;98832.28;5075399;28;20501;-70
2021/07/23 06:00:55;;;;;;;5.90;2.30;;;;;;;26.43;34.43;98821.78;5093007;28;20497;-74
2021/07/23 06:03:21;;;;;;;7.32;2.30;;;;;;;26.87;33.41;98827.47;5093157;28;20497;-74
2021/07/23 06:05:47;;;;;;;6.75;2.28;;;;;;;27.84;32.33;98813.66;5093189;28;20058;-76
2021/07/23 06:08:14;;;;;;;5.43;1.88;;;;;;;27.70;31.68;98812.38;5093128;28;20048;-78
2021/07/23 06:10:40;;;;;;;7.30;2.45;;;;;;;27.06;32.67;98813.63;5092808;28;20507;-75
2021/07/23 06:13:06;;;;;;;6.40;2.00;;;;;;;26.42;33.45;98798.47;5092958;28;20071;-76
2021/07/23 06:15:31;;;;;;;5.68;2.10;;;;;;;26.16;34.43;98792.56;5093053;28;20040;-73
2021/07/23 06:18:00;;;;;;;8.45;2.03;;;;;;;25.96;34.52;98796.50;5092632;28;20044;-73
2021/07/23 06:20:26;;;;;;;5.20;1.42;;;;;;;26.34;33.15;98788.81;5092649;28;20510;-73
2021/07/23 06:22:58;;;;;;;5.45;2.05;;;;;;;26.37;33.75;98790.22;5092804;28;20358;-72
2021/07/23 06:25:24;;;;;;;12.40;2.20;;;;;;;27.09;32.47;98794.13;5092509;28;20108;-73
2021/07/23 06:27:50;;;;;;;6.05;1.80;;;;;;;28.73;29.64;98792.56;5074532;28;20040;-73
2021/07/23 06:30:17;;;;;;;9.00;1.93;;;;;;;29.07;29.35;98794.16;5092382;28;20058;-78
2021/07/23 06:32:43;;;;;;;10.02;2.08;;;;;;;30.28;27.28;98789.81;5074834;28;20378;-73
2021/07/23 06:35:09;;;;;;;10.05;2.38;;;;;;;31.70;25.02;98794.66;5092258;28;20047;-73
2021/07/23 06:37:35;;;;;;;7.70;1.85;;;;;;;31.67;25.15;98789.72;5092466;28;20043;-71
2021/07/23 06:40:01;;;;;;;4.50;1.67;;;;;;;30.91;25.75;98786.06;5092703;28;20048;-75
2021/07/23 06:42:27;;;;;;;7.53;1.75;;;;;;;31.64;25.15;98789.47;5092884;28;20382;-73
2021/07/23 06:44:53;;;;;;;25.97;2.80;;;;;;;32.96;23.29;98786.19;5092610;28;20170;-76
2021/07/23 06:47:19;;;;;;;17.35;7.32;;;;;;;33.23;23.01;98784.81;5074015;28;20040;-76
2021/07/23 06:49:47;;;;;;;8.05;1.98;;;;;;;35.18;20.86;98776.81;5092366;28;20573;-74
2021/07/23 06:52:13;;;;;;;5.63;1.40;;;;;;;35.11;20.65;98769.78;5094502;28;20044;-73
2021/07/23 06:54:39;;;;;;;9.40;2.10;;;;;;;33.41;22.42;98779.69;5096649;28;20051;-74
2021/07/23 06:57:05;;;;;;;9.67;1.27;;;;;;;30.48;25.70;98775.38;5092650;28;20092;-73
2021/07/23 06:59:34;;;;;;;7.18;1.60;;;;;;;29.57;27.18;98774.84;5092887;28;20505;-75
2021/07/23 07:02:04;;;;;;;8.07;1.80;;;;;;;29.04;28.49;98765.56;5092233;28;20042;-75
2021/07/23 07:04:31;;;;;;;12.77;1.70;;;;;;;30.81;25.71;98774.03;5074706;28;20056;-76
2021/07/23 07:06:58;;;;;;;7.40;1.40;;;;;;;33.30;23.71;98757.06;5091957;28;20535;-77
2021/07/23 07:09:25;;;;;;;13.73;3.50;;;;;;;33.65;22.57;98772.28;5092312;28;20066;-72
2021/07/23 07:11:50;;;;;;;;;;;;;;;34.00;22.03;98756.47;5092484;28;20067;-73
2021/07/23 07:14:16;;;;;;;25.80;2.72;;;;;;;34.45;21.51;98755.28;5092459;28;20542;-76
2021/07/23 07:16:42;;;;;;;8.40;2.40;;;;;;;35.13;20.88;98755.75;5092443;28;20108;-77
2021/07/23 07:19:08;;;;;;;7.60;2.13;;;;;;;35.35;20.36;98751.47;5092216;28;20074;-75
2021/07/23 07:21:34;;;;;;;11.97;2.57;;;;;;;35.58;20.14;98750.47;5092983;28;20058;-72
2021/07/23 07:24:00;;;;;;;16.67;2.22;;;;;;;35.51;20.21;98752.81;5092884;28;20385;-75
2021/07/23 07:26:27;;;;;;;8.55;1.63;;;;;;;36.41;19.15;98743.97;5093261;28;20052;-77
2021/07/23 07:28:53;;;;;;;4.90;1.83;;;;;;;35.21;20.44;98752.28;5094143;28;20058;-74
2021/07/23 07:31:18;;;;;;;7.88;1.65;;;;;;;34.89;20.81;98748.50;5077669;28;20150;-76
2021/07/23 07:33:44;;;;;;;11.77;3.70;;;;;;;35.61;19.98;98744.34;5096155;28;20039;-73
2021/07/23 07:36:16;;;;;;;6.43;1.90;;;;;;;35.84;20.01;98730.66;5095788;28;20382;-74
2021/07/23 07:38:46;;;;;;;10.82;2.20;;;;;;;35.61;19.82;98722.34;5096136;28;20511;-78
2021/07/23 07:41:18;;;;;;;7.03;1.70;;;;;;;36.16;19.35;98730.78;5096171;28;20520;-79
2021/07/23 07:43:45;;;;;;;9.60;1.75;;;;;;;36.53;19.05;98723.31;5096270;28;20040;-75
2021/07/23 07:46:11;;;;;;;;;;;;;;;36.10;19.12;98727.31;5096473;28;20048;-74
2021/07/23 07:48:37;;;;;;;;;;;;;;;33.49;21.57;98716.00;5096609;28;19919;-75
2021/07/23 07:51:02;;;;;;;9.57;1.77;;;;;;;32.09;23.63;98736.44;5096105;28;19926;-78
2021/07/23 07:53:28;;;;;;;9.17;1.60;;;;;;;32.23;24.01;98730.38;5096210;28;20449;-74
2021/07/23 07:55:54;;;;;;;11.93;2.10;;;;;;;32.36;23.79;98731.63;5095889;28;20044;-75
2021/07/23 07:58:20;;;;;;;8.33;2.00;;;;;;;32.21;23.88;98727.09;5095650;28;20127;-76
2021/07/23 08:00:46;;;;;;;9.77;1.60;;;;;;;33.57;22.05;98722.75;5095315;28;20063;-73
2021/07/23 08:03:12;;;;;;;9.40;1.70;;;;;;;33.45;22.07;98731.38;5094827;28;20040;-72
2021/07/23 08:05:37;;;;;;;9.93;2.67;;;;;;;32.24;24.20;98721.88;5094879;28;20048;-73
2021/07/23 08:08:04;;;;;;;18.23;4.37;;;;;;;32.14;23.74;98732.03;5094654;28;20048;-73
2021/07/23 08:10:33;;;;;;;16.52;5.82;;;;;;;32.71;23.97;98722.28;5094752;28;20552;-73
2021/07/23 08:12:59;;;;;;;11.52;4.43;;;;;;;33.58;22.69;98718.91;5094862;28;20051;-73
2021/07/23 08:15:25;;;;;;;9.87;3.87;;;;;;;34.34;22.01;98719.75;5094392;28;20039;-72
2021/07/23 08:17:51;;;;;;;14.30;4.83;;;;;;;33.82;22.12;98708.72;5094665;28;20075;-77
2021/07/23 08:20:17;;;;;;;8.75;2.63;;;;;;;34.87;20.98;98701.28;5094443;28;20044;-71
2021/07/23 08:22:43;;;;;;;12.00;3.15;;;;;;;34.97;20.96;98709.31;5076413;28;20048;-70
2021/07/23 08:25:09;;;;;;;12.25;4.13;;;;;;;34.43;21.41;98694.34;5094351;28;20032;-72
2021/07/23 08:27:35;;;;;;;8.27;2.42;;;;;;;33.35;22.74;98699.47;5094345;28;20055;-71
2021/07/23 08:30:02;;;;;;;8.80;2.00;;;;;;;32.50;23.55;98688.81;5094471;28;20032;-73
2021/07/23 08:32:31;;;;;;;;;;;;;;;31.82;24.44;98697.78;5095088;28;20051;-72
2021/07/23 08:34:59;;;;;;;16.33;5.82;;;;;;;31.31;25.74;98694.19;5094416;28;19916;-73
2021/07/23 08:37:25;;;;;;;14.27;7.28;;;;;;;30.08;27.03;98693.22;5093996;28;20040;-75
2021/07/23 08:39:51;;;;;;;15.55;6.88;;;;;;;28.86;28.90;98700.66;5075578;28;20059;-72
2021/07/23 08:42:30;;;;;;;6.53;2.63;;;;;;;28.52;29.29;98693.59;5094354;28;20036;-73
2021/07/23 08:44:57;;;;;;;10.88;4.07;;;;;;;27.96;30.42;98690.38;5094221;28;20043;-75
2021/07/23 08:47:23;;;;;;;14.10;4.75;;;;;;;27.62;31.02;98691.38;5093996;28;20052;-74
2021/07/23 08:49:50;;;;;;;7.32;3.83;;;;;;;26.85;32.02;98693.91;5093895;28;20052;-73
2021/07/23 08:52:16;;;;;;;10.75;4.85;;;;;;;26.51;33.14;98685.00;5093775;28;20040;-75
2021/07/23 08:54:44;;;;;;;7.95;2.63;;;;;;;26.28;33.74;98679.47;5075957;28;20063;-72
2021/07/23 08:57:10;;;;;;;18.05;6.82;;;;;;;26.09;34.12;98691.63;5093369;28;20040;-73
2021/07/23 08:59:36;;;;;;;12.00;4.68;;;;;;;25.91;34.53;98690.75;5094109;28;20043;-74
2021/07/23 09:02:04;;;;;;;12.23;3.47;;;;;;;25.72;34.75;98686.59;5093766;28;20052;-72
2021/07/23 09:04:35;;;;;;;10.68;2.33;;;;;;;25.81;34.89;98685.16;5093544;28;20432;-73
2021/07/23 09:07:19;;;;;;;11.57;3.53;;;;;;;25.23;35.89;98690.47;5075334;28;20143;-73
2021/07/23 09:10:03;;;;;;;6.50;2.58;;;;;;;24.79;36.50;98684.66;5093888;28;20052;-75
2021/07/23 09:12:47;;;;;;;6.32;3.40;;;;;;;24.49;37.66;98680.97;5093616;28;20056;-76
2021/07/23 09:15:42;;;;;;;7.43;3.30;;;;;;;24.37;38.28;98693.66;5078462;28;20048;-72
2021/07/23 09:18:30;;;;;;;9.95;2.78;;;;;;;24.00;38.71;98688.41;5093060;28;20040;-75
2021/07/23 09:20:58;;;;;;;7.85;2.80;;;;;;;24.13;38.69;98688.22;5093477;28;20048;-73
2021/07/23 09:23:30;;;;;;;9.07;2.15;;;;;;;24.17;37.62;98677.75;5093135;28;20054;-72
2021/07/23 09:25:57;;;;;;;11.23;2.40;;;;;;;24.23;37.34;98682.25;5093473;28;20036;-76
2021/07/23 09:28:34;;;;;;;15.00;3.70;;;;;;;24.49;36.90;98670.16;5092926;28;20054;-72
2021/07/23 09:31:05;;;;;;;12.05;2.72;;;;;;;24.47;36.78;98672.25;5093490;28;20500;-75
2021/07/23 09:33:40;;;;;;;7.53;2.67;;;;;;;24.56;36.75;98659.22;5075233;28;20431;-75
2021/07/23 09:36:11;;;;;;;10.52;2.67;;;;;;;24.57;36.56;98660.06;5092998;28;20051;-73
2021/07/23 09:38:40;;;;;;;9.52;2.55;;;;;;;24.69;36.64;98655.50;5092732;28;20040;-73
2021/07/23 09:41:21;;;;;;;7.93;3.00;;;;;;;24.83;36.18;98658.78;5093231;28;20119;-73
2021/07/23 09:44:07;;;;;;;8.73;2.70;;;;;;;25.52;34.32;98656.19;5094065;28;20055;-76
2021/07/23 09:46:40;;;;;;;13.95;3.28;;;;;;;25.52;34.24;98660.75;5094067;28;20060;-76
2021/07/23 09:49:27;;;;;;;6.20;2.97;;;;;;;25.42;34.08;98644.31;5093521;28;20519;-75
2021/07/23 09:51:59;;;;;;;14.93;3.15;;;;;;;25.12;34.15;98650.72;5093332;28;20056;-74
2021/07/23 09:54:25;;;;;;;11.80;3.60;;;;;;;24.71;34.67;98648.81;5093595;28;20043;-75
2021/07/23 09:56:50;;;;;;;10.98;3.85;;;;;;;24.37;35.57;98653.94;5093171;28;20039;-74
2021/07/23 09:59:25;;;;;;;13.45;3.35;;;;;;;24.23;36.16;98649.81;5092585;28;20048;-74
2021/07/23 10:01:54;;;;;;;10.05;3.13;;;;;;;24.13;36.22;98657.69;5095249;28;20109;-73
2021/07/23 10:04:21;;;;;;;11.70;3.55;;;;;;;24.19;36.45;98654.03;5092165;28;20063;-75
2021/07/23 10:07:08;;;;;;;13.80;4.05;;;;;;;26.48;33.07;98642.88;5091722;28;20462;-74
2021/07/23 10:09:36;;;;;;;10.18;3.22;;;;;;;28.47;29.66;98641.88;5093543;28;20047;-73
2021/07/23 10:12:05;;;;;;;15.55;3.63;;;;;;;29.50;27.71;98627.97;5090851;28;20098;-76
2021/07/23 10:14:32;;;;;;;16.17;3.10;;;;;;;29.13;26.45;98620.75;5093014;28;20125;-75
2021/07/23 10:16:58;;;;;;;13.65;3.75;;;;;;;29.48;25.47;98617.31;5091857;28;20044;-76
2021/07/23 10:19:24;;;;;;;18.60;3.92;;;;;;;29.98;25.41;98620.44;5092882;28;20481;-74
2021/07/23 10:21:54;;;;;;;30.15;5.28;;;;;;;29.04;26.07;98615.00;5092670;28;20079;-72
2021/07/23 10:24:21;;;;;;;19.80;4.32;;;;;;;27.76;27.32;98623.88;5092337;28;20131;-76
2021/07/23 10:26:46;;;;;;;40.70;6.03;;;;;;;27.40;28.58;98623.50;5058331;28;20048;-74
2021/07/23 10:29:12;;;;;;;18.02;3.67;;;;;;;28.69;26.42;98617.28;5092325;28;20139;-73
2021/07/23 10:31:39;;;;;;;24.58;3.90;;;;;;;29.70;25.17;98608.13;5092475;28;20055;-76
2021/07/23 10:34:06;;;;;;;21.48;4.15;;;;;;;30.49;23.79;98605.97;5074928;28;20079;-75
2021/07/23 10:36:32;;;;;;;20.40;3.92;;;;;;;30.75;23.79;98607.78;5092680;28;20511;-76
2021/07/23 10:39:07;;;;;;;11.27;3.00;;;;;;;30.26;22.74;98606.50;5092032;28;20067;-72
2021/07/23 10:41:41;;;;;;;11.85;3.67;;;;;;;30.21;22.58;98614.69;5092479;28;20059;-74
2021/07/23 10:44:23;;;;;;;15.00;3.42;;;;;;;30.07;22.92;98615.25;5091587;28;20052;-76
2021/07/23 10:46:49;;;;;;;20.58;3.50;;;;;;;29.83;22.52;98593.13;5092157;28;20044;-74
2021/07/23 10:49:26;;;;;;;19.63;5.70;;;;;;;29.23;23.15;98617.25;5091509;28;20055;-77
2021/07/23 10:51:59;;;;;;;19.85;4.75;;;;;;;28.86;23.77;98611.66;5092993;28;20044;-73
2021/07/23 10:54:28;;;;;;;23.23;4.95;;;;;;;28.99;24.28;98604.09;5092533;28;20036;-78
2021/07/23 10:56:58;;;;;;;12.43;4.38;;;;;;;28.63;24.21;98601.16;5091996;28;20092;-72
2021/07/23 10:59:42;;;;;;;23.17;5.65;;;;;;;28.08;24.95;98612.22;5092223;28;20051;-77
2021/07/23 11:02:10;;;;;;;12.85;3.65;;;;;;;27.53;25.66;98611.44;5092390;28;20048;-74
2021/07/23 11:04:38;;;;;;;21.13;5.93;;;;;;;27.32;26.32;98610.38;5090719;28;20047;-76
2021/07/23 11:07:05;;;;;;;21.90;6.25;;;;;;;27.17;26.46;98611.84;5092433;28;20055;-76
2021/07/23 11:09:32;;;;;;;12.65;4.05;;;;;;;27.74;26.10;98612.47;5092384;28;20368;-75
2021/07/23 11:12:11;;;;;;;13.70;3.77;;;;;;;27.97;25.31;98610.47;5074070;28;20396;-73
2021/07/23 11:14:37;;;;;;;12.73;3.47;;;;;;;27.69;25.86;98615.09;5091809;28;20165;-74
2021/07/23 11:17:03;;;;;;;10.57;4.82;;;;;;;27.40;25.95;98628.94;5090335;28;20456;-73
2021/07/23 11:19:29;;;;;;;20.17;3.28;;;;;;;26.55;28.32;98635.41;5091005;28;20514;-75
2021/07/23 11:21:54;;;;;;;35.92;4.53;;;;;;;26.06;30.32;98654.19;5091197;28;20114;-72
2021/07/23 11:24:20;;;;;;;38.40;5.22;;;;;;;25.72;31.57;98668.47;5092167;28;20277;-74
2021/07/23 11:26:52;;;;;;;26.75;4.28;;;;;;;24.92;34.04;98679.00;5092094;28;20127;-72
2021/07/23 11:29:32;;;;;;;14.25;3.72;;;;;;;24.43;35.63;98689.22;5091665;28;20075;-74
2021/07/23 11:32:12;;;;;;;19.40;3.70;;;;;;;23.87;37.10;98694.78;5092156;28;20123;-75
2021/07/23 11:34:41;;;;;;;18.50;3.85;;;;;;;23.49;38.28;98685.13;5092307;28;20058;-75
2021/07/23 11:37:20;;;;;;;17.55;3.60;;;;;;;23.35;38.84;98692.56;5090858;28;20039;-75
2021/07/23 11:39:58;;;;;;;17.90;4.28;;;;;;;23.21;39.79;98694.59;5091725;28;20130;-73